• Join FlightAware (Why Join?)
  • Login
  • US Flag 
04:06PM EDT


 

Airport Tracker/Info


-or-


 

Live Flight TrackerFlight Track Log ✈ VH-ZPO ✈ 05-May-2013 ✈ YBMK / MKY - YBBN / BNE

Flight Track Log - Related Links

Times and Time Zones

All times are in EDT time to prevent confusion due to time zone crossing. See the VH-ZPO flight status page for this flight to view local times or setup timezone preferences in your user account.

Time Position Orientation Groundspeed Altitude Reporting Facility
EDT Latitude Longitude Course Direction KTS MPH feet Rate Location/Type
11:16PM -21.1887 149.1936 166° South 139 160 1,200  Level Aus ATC (RADAR)
11:17PM -21.2391 149.2071 166° South 179 206 3,600 2,160 Climbing Aus ATC (RADAR)
11:17PM -21.2615 149.2139 164° South 193 222 4,500 1,500 Climbing Aus ATC (RADAR)
11:18PM -21.2995 149.2258 164° South 233 268 5,100 1,860 Climbing Aus ATC (RADAR)
11:19PM -21.3542 149.2413 165° South 263 303 7,000 2,760 Climbing Aus ATC (RADAR)
11:19PM -21.3974 149.2547 164° South 275 316 8,800 3,120 Climbing Aus ATC (RADAR)
11:20PM -21.4480 149.2630 171° South 301 346 10,700 2,280 Climbing Aus ATC (RADAR)
11:20PM -21.4982 149.2731 169° South 318 366 11,500 2,160 Climbing Aus ATC (RADAR)
11:21PM -21.5523 149.2842 169° South 335 386 13,200 2,640 Climbing Aus ATC (RADAR)
11:22PM -21.6623 149.3094 168° South 352 405 16,200 2,580 Climbing Aus ATC (RADAR)
11:23PM -21.7029 149.3180 169° South 355 409 17,400 2,460 Climbing Aus ATC (RADAR)
11:23PM -21.7602 149.3312 168° South 362 417 18,700 2,160 Climbing Aus ATC (RADAR)
11:24PM -21.8351 149.3505 167° South 371 427 20,300 2,160 Climbing Aus ATC (RADAR)
11:24PM -21.8959 149.3653 167° South 383 441 21,600 1,920 Climbing Aus ATC (RADAR)
11:25PM -21.9566 149.3860 162° South 397 457 22,600 1,800 Climbing Aus ATC (RADAR)
11:26PM -22.0250 149.4193 156° South 409 471 23,900 2,040 Climbing Aus ATC (RADAR)
11:26PM -22.0858 149.4470 157° South 409 471 25,200 1,740 Climbing Aus ATC (RADAR)
11:27PM -22.1938 149.4958 157° South 427 491 26,700 1,440 Climbing Aus ATC (RADAR)
11:28PM -22.2399 149.5169 157° South 431 496 27,300 1,380 Climbing Aus ATC (RADAR)
11:28PM -22.3051 149.5487 156° South 443 510 28,100 1,500 Climbing Aus ATC (RADAR)
11:29PM -22.3816 149.5833 157° South 450 518 29,200 1,680 Climbing Aus ATC (RADAR)
11:30PM -22.4478 149.6154 156° South 448 516 30,200 1,440 Climbing Aus ATC (RADAR)
11:30PM -22.5157 149.6464 157° South 457 526 30,900 1,080 Climbing Aus ATC (RADAR)
11:31PM -22.5838 149.6793 156° South 458 527 31,500 1,080 Climbing Aus ATC (RADAR)
11:31PM -22.6532 149.7124 156° South 467 537 32,200 1,620 Climbing Aus ATC (RADAR)
11:32PM -22.7715 149.7688 156° South 467 537 34,100 1,860 Climbing Aus ATC (RADAR)
11:33PM -22.8199 149.7904 158° South 457 526 34,900 1,500 Climbing Aus ATC (RADAR)
11:33PM -22.8870 149.8213 157° South 455 524 35,600 960 Climbing Aus ATC (RADAR)
11:34PM -22.9722 149.8616 156° South 450 518 36,200 720 Climbing Aus ATC (RADAR)
11:35PM -23.0398 149.8933 157° South 455 524 36,600 900 Climbing Aus ATC (RADAR)
11:35PM -23.1280 149.9333 157° South 459 528 37,400 1,020 Climbing Aus ATC (RADAR)
11:36PM -23.1765 149.9554 157° South 455 524 37,800 660 Climbing Aus ATC (RADAR)
11:36PM -23.2452 149.9866 157° South 461 531 38,100 660 Climbing Aus ATC (RADAR)
11:37PM -23.3707 150.0456 157° South 454 522 38,900 720 Climbing Aus ATC (RADAR)
11:38PM -23.4195 150.0681 157° South 458 527 39,200 180 Climbing Aus ATC (RADAR)
11:38PM -23.4887 150.0996 157° South 462 532 39,100 -120 Descending Aus ATC (RADAR)
11:39PM -23.5794 150.1413 157° South 473 544 39,100  Level Aus ATC (RADAR)
11:40PM -23.6496 150.1740 157° South 473 544 39,100  Level Aus ATC (RADAR)
11:40PM -23.7206 150.2067 157° South 475 547 39,100  Level Aus ATC (RADAR)
11:41PM -23.7908 150.2396 157° South 473 544 39,100  Level Aus ATC (RADAR)
11:42PM -23.8612 150.2721 157° South 472 543 39,100  Level Aus ATC (RADAR)
11:42PM -23.9721 150.3238 157° South 476 548 39,100  Level Aus ATC (RADAR)
11:43PM -24.0223 150.3473 157° South 472 543 39,100  Level Aus ATC (RADAR)
11:43PM -24.0919 150.3799 157° South 467 537 39,100  Level Aus ATC (RADAR)
11:44PM -24.1719 150.4174 157° South 469 540 39,100  Level Aus ATC (RADAR)
11:45PM -24.2420 150.4506 157° South 471 542 39,100  Level Aus ATC (RADAR)
11:45PM -24.3124 150.4842 157° South 471 542 39,100  Level Aus ATC (RADAR)
11:46PM -24.3825 150.5171 157° South 469 540 39,100  Level Aus ATC (RADAR)
11:46PM -24.4525 150.5501 157° South 465 535 39,100  Level Aus ATC (RADAR)
11:48PM -24.5962 150.6450 149° Southeast 482 555 39,100  Level Aus ATC (RADAR)
11:48PM -24.6429 150.6788 147° Southeast 481 554 39,100  Level Aus ATC (RADAR)
11:49PM -24.7078 150.7265 146° Southeast 477 549 39,100  Level Aus ATC (RADAR)
11:49PM -24.7823 150.7812 146° Southeast 476 548 39,100  Level Aus ATC (RADAR)
11:50PM -24.8474 150.8289 146° Southeast 480 552 39,100  Level Aus ATC (RADAR)
11:50PM -24.9125 150.8764 147° Southeast 478 550 39,100  Level Aus ATC (RADAR)
11:51PM -24.9780 150.9242 147° Southeast 481 554 39,100  Level Aus ATC (RADAR)
11:52PM -25.0432 150.9720 146° Southeast 481 554 39,100  Level Aus ATC (RADAR)
11:53PM -25.1548 151.0553 146° Southeast 481 554 39,100  Level Aus ATC (RADAR)
11:53PM -25.2017 151.0892 147° Southeast 481 554 39,100  Level Aus ATC (RADAR)
11:54PM -25.2671 151.1371 147° Southeast 481 554 39,100 60 Level Aus ATC (RADAR)
11:54PM -25.3503 151.1989 146° Southeast 478 550 39,200 60 Climbing Aus ATC (RADAR)
11:55PM -25.4152 151.2463 147° Southeast 477 549 39,200  Level Aus ATC (RADAR)
11:55PM -25.4704 151.2877 146° Southeast 475 547 39,200  Level Aus ATC (RADAR)
11:56PM -25.5445 151.3426 146° Southeast 476 548 39,200  Level Aus ATC (RADAR)
11:57PM -25.6097 151.3913 146° Southeast 479 551 39,200  Level Aus ATC (RADAR)
11:58PM -25.7116 151.4673 146° Southeast 479 551 39,200  Level Aus ATC (RADAR)
11:58PM -25.7565 151.5047 143° Southeast 478 550 39,200  Level Aus ATC (RADAR)
11:59PM -25.8162 151.5641 138° Southeast 489 563 39,200 -420 Level Aus ATC (RADAR)
11:59PM -25.8930 151.6405 138° Southeast 489 563 38,700 -1,620 Descending Aus ATC (RADAR)
12:00AM -25.9521 151.6997 138° Southeast 485 558 37,100 -2,880 Descending Aus ATC (RADAR)
12:01AM -26.0119 151.7582 139° Southeast 483 556 35,400 -3,120 Descending Aus ATC (RADAR)
12:01AM -26.0711 151.8182 138° Southeast 488 562 33,500 -3,120 Descending Aus ATC (RADAR)
12:02AM -26.1305 151.8779 138° Southeast 487 560 31,800 -2,700 Descending Aus ATC (RADAR)
12:03AM -26.2312 151.9774 138° Southeast 472 543 29,300 -2,220 Descending Aus ATC (RADAR)
12:03AM -26.2713 152.0184 137° Southeast 465 535 28,700 -2,220 Descending Aus ATC (RADAR)
12:04AM -26.3260 152.0742 138° Southeast 451 519 27,100 -2,520 Descending Aus ATC (RADAR)
12:04AM -26.3958 152.1439 138° Southeast 439 505 25,400 -2,280 Descending Aus ATC (RADAR)
12:05AM -26.4484 152.1963 138° Southeast 428 493 24,100 -2,340 Descending Aus ATC (RADAR)
12:06AM -26.4992 152.2485 137° Southeast 417 480 22,700 -2,400 Descending Aus ATC (RADAR)
12:06AM -26.5491 152.3006 137° Southeast 413 475 21,300 -2,460 Descending Aus ATC (RADAR)
12:07AM -26.5985 152.3497 138° Southeast 401 461 19,900 -2,340 Descending Aus ATC (RADAR)
12:08AM -26.6797 152.4330 137° Southeast 386 444 17,700 -2,160 Descending Aus ATC (RADAR)
12:08AM -26.7122 152.4658 138° Southeast 374 430 16,900 -1,980 Descending Aus ATC (RADAR)
12:09AM -26.7627 152.5171 138° Southeast 360 414 15,600 -1,980 Descending Aus ATC (RADAR)
12:10AM -26.8116 152.5674 138° Southeast 351 404 14,300 -1,920 Descending Aus ATC (RADAR)
12:10AM -26.8539 152.6103 138° Southeast 346 398 13,200 -1,860 Descending Aus ATC (RADAR)
12:11AM -26.8947 152.6526 137° Southeast 336 387 12,200 -1,800 Descending Aus ATC (RADAR)
12:11AM -26.9277 152.7017 127° Southeast 331 381 11,100 -1,680 Descending Aus ATC (RADAR)
12:12AM -26.9584 152.7519 125° Southeast 328 377 10,300 -1,260 Descending Aus ATC (RADAR)
12:13AM -27.0050 152.8472 119° Southeast 290 334 8,900 -1,200 Descending Aus ATC (RADAR)
12:13AM -27.0171 152.8735 117° Southeast 283 326 8,500 -1,620 Descending Aus ATC (RADAR)
12:14AM -27.0412 152.9255 117° Southeast 276 318 7,300 -1,740 Descending Aus ATC (RADAR)
12:15AM -27.0648 152.9782 117° Southeast 274 315 6,200 -1,620 Descending Aus ATC (RADAR)
12:15AM -27.0858 153.0224 118° Southeast 268 308 5,300 -1,560 Descending Aus ATC (RADAR)
12:16AM -27.1060 153.0665 117° Southeast 264 304 4,400 -1,200 Descending Aus ATC (RADAR)
12:16AM -27.1256 153.1096 117° Southeast 259 298 3,900 -900 Descending Aus ATC (RADAR)
12:17AM -27.1447 153.1512 117° Southeast 253 291 3,400 -600 Descending Aus ATC (RADAR)
12:18AM -27.1828 153.2092 126° Southeast 227 261 3,000 -300 Descending Aus ATC (RADAR)
12:18AM -27.2033 153.2220 151° Southeast 207 238 3,000 -120 Level Aus ATC (RADAR)
12:19AM -27.2328 153.2168 189° South 188 216 2,900 -540 Descending Aus ATC (RADAR)
12:20AM -27.2634 153.1977 209° Southwest 186 214 2,400 -840 Descending Aus ATC (RADAR)
12:20AM -27.2890 153.1833 207° Southwest 177 204 1,900 -900 Descending Aus ATC (RADAR)
12:21AM -27.3121 153.1703 206° Southwest 161 185 1,400 -780 Descending Aus ATC (RADAR)
12:21AM -27.3324 153.1587 207° Southwest 142 163 1,000 -720 Descending Aus ATC (RADAR)
12:22AM -27.3511 153.1481 207° Southwest 131 151 600 -720 Descending Aus ATC (RADAR)